Upper Greenwood Lake, New Jersey
Current Conditions -  °F | °C
As of 5:53 PM on Thursday 20 Nov 2014 (Local Time) from KFWN Reporting Station
Clear Clear  
Wind Chill: 30°   Ceiling: Unl
Heat Index: 35°   Visibility: 10mi
Dew Point: 13°   Wind: 6mph
Humidity: 40%   Direction: 260°W
Pressure: 29.9"   Gusts: NA
Location:  41.1652°N, 74.3769°W
Report Text: KFWN 202253Z AUTO 26005KT 10SM CLR 02/M11 A2990 RMK AO2 SLP128 T00171106
Loading
Personal Weather Stations






























Interactive Weather Map New forecast layout! Learn more

10-Day Weather Forecast

Advertisements
Track Severe Weather on mobile